Etusivu
METAR-TAF:

METAR-TAF

Lentoasemat :

Reykjavíkin lentoasema

Reykjavík, Islanti

Leveyspiiri: 64-08N, Pituuspiiri: 021-54W, korkeus merenpinnasta: 54 m

Tämänhetkinen sää

Tämä raportti tehtiin 58 minuuttia sitten, kello 18.00 UTC
Tuuli 4 kn pohjoisesta
Lämpötila 9°C
Kosteus 76%
Ilmanpaine 1015 hPa
Näkyvyys 10 km tai enemmän
Hajonneita pilviä 2400 ft:n korkeudessa
Pilvistä 2600 ft:n korkeudessa
heikkoa sadetta

METAR: BIRK 201800Z 01004KT 9999 -RA BKN024 OVC026 09/05 Q1015

Aika: 18:58 (18:58 UTC)

Sääennuste

Tämä raportti tehtiin 2 tuntia ja 41 minuuttia sitten, kello 16.17 UTC
Ennuste voimassa 20. päivästä klo 18 UTC - 21. päivään klo 18 UTC
Tuuli 5 kn koillisesta
Näkyvyys 10 km tai enemmän
Muutamia pilviä 1500 ft:n korkeudessa
Hajanaisia pilviä 2500 ft:n korkeudessa
Hajonneita pilviä 4000 ft:n korkeudessa
heikkoja vesikuuroja

TAF: BIRK 201617Z 2018/2118 05005KT 9999 -SHRA FEW015 SCT025 BKN040 TX12/2112Z TN06/2106Z

Säähavainnot ja -ennusteet yli 4000 lentoasemalta (METAR- ja TAF-raportit).

Käytössä olevat sääasemat on merkitty karttaan keltaisilla ja punaisilla pisteillä.

Aseta hiiri pisteen päälle nähdäksesi sääaseman nimen.

Klikkaa sitten nähdäksesi säähavainnot ja -ennusteet.

Kartan vaihtaminen: klikkaa mustalla rastilla varustettuja vihreitä pisteitä, niin voit zoomata sisään; viivalla varustettua vihreää pistettä, niin voit zoomata ulos tai vihreitä nuolia, niin pääset viereisille kartoille.


METAR-TAF: